sensor_id;sensor_type;location;lat;lon;timestamp;pressure;altitude;pressure_sealevel;temperature;humidity
75497;BME280;64074;47.540;19.072;2024-03-22T00:02:52;100884.50;;;12.81;53.93
75497;BME280;64074;47.540;19.072;2024-03-22T00:06:30;100875.50;;;12.99;52.84
75497;BME280;64074;47.540;19.072;2024-03-22T00:09:50;100869.16;;;13.04;53.43
75497;BME280;64074;47.540;19.072;2024-03-22T00:13:14;100864.50;;;13.04;53.39
75497;BME280;64074;47.540;19.072;2024-03-22T00:16:43;100867.06;;;13.14;53.19
75497;BME280;64074;47.540;19.072;2024-03-22T00:20:00;100865.66;;;13.17;52.52
75497;BME280;64074;47.540;19.072;2024-03-22T00:23:20;100861.50;;;13.06;53.33
75497;BME280;64074;47.540;19.072;2024-03-22T00:26:39;100857.88;;;13.10;52.92
75497;BME280;64074;47.540;19.072;2024-03-22T00:30:06;100856.34;;;13.04;53.33
75497;BME280;64074;47.540;19.072;2024-03-22T00:33:20;100861.56;;;13.19;53.18
75497;BME280;64074;47.540;19.072;2024-03-22T00:36:33;100860.56;;;13.29;53.00
75497;BME280;64074;47.540;19.072;2024-03-22T00:39:52;100858.34;;;13.17;53.12
75497;BME280;64074;47.540;19.072;2024-03-22T00:43:02;100851.38;;;13.25;52.68
75497;BME280;64074;47.540;19.072;2024-03-22T00:46:11;100845.53;;;13.32;53.12
75497;BME280;64074;47.540;19.072;2024-03-22T00:49:28;100830.28;;;13.17;53.44
75497;BME280;64074;47.540;19.072;2024-03-22T00:52:46;100841.41;;;13.20;53.37
75497;BME280;64074;47.540;19.072;2024-03-22T00:56:04;100840.91;;;13.18;53.54
75497;BME280;64074;47.540;19.072;2024-03-22T00:59:28;100833.22;;;13.34;53.57
75497;BME280;64074;47.540;19.072;2024-03-22T01:02:59;100835.75;;;13.31;52.68
75497;BME280;64074;47.540;19.072;2024-03-22T01:06:21;100848.09;;;13.42;53.03
75497;BME280;64074;47.540;19.072;2024-03-22T01:09:43;100837.56;;;13.35;52.96
75497;BME280;64074;47.540;19.072;2024-03-22T01:13:07;100842.50;;;13.33;52.66
75497;BME280;64074;47.540;19.072;2024-03-22T01:16:36;100844.22;;;13.29;53.07
75497;BME280;64074;47.540;19.072;2024-03-22T01:19:56;100844.44;;;13.33;53.24
75497;BME280;64074;47.540;19.072;2024-03-22T01:23:21;100844.53;;;13.28;53.27
75497;BME280;64074;47.540;19.072;2024-03-22T01:26:34;100847.56;;;13.26;53.14
75497;BME280;64074;47.540;19.072;2024-03-22T01:30:02;100849.97;;;13.28;53.38
75497;BME280;64074;47.540;19.072;2024-03-22T01:33:22;100844.81;;;13.26;53.29
75497;BME280;64074;47.540;19.072;2024-03-22T01:36:35;100841.59;;;13.24;53.09
75497;BME280;64074;47.540;19.072;2024-03-22T01:39:38;100838.56;;;13.26;53.65
75497;BME280;64074;47.540;19.072;2024-03-22T01:42:46;100839.78;;;13.19;53.07
75497;BME280;64074;47.540;19.072;2024-03-22T01:45:49;100834.75;;;13.27;53.16
75497;BME280;64074;47.540;19.072;2024-03-22T01:48:53;100837.16;;;13.28;53.32
75497;BME280;64074;47.540;19.072;2024-03-22T01:52:03;100833.22;;;13.34;53.06
75497;BME280;64074;47.540;19.072;2024-03-22T01:55:13;100826.66;;;13.35;52.97
75497;BME280;64074;47.540;19.072;2024-03-22T01:58:44;100825.78;;;13.26;53.53
75497;BME280;64074;47.540;19.072;2024-03-22T02:01:58;100830.91;;;13.28;53.24
75497;BME280;64074;47.540;19.072;2024-03-22T02:05:18;100834.53;;;13.23;53.73
75497;BME280;64074;47.540;19.072;2024-03-22T02:08:46;100828.09;;;13.19;53.92
75497;BME280;64074;47.540;19.072;2024-03-22T02:11:55;100830.22;;;13.22;53.74
75497;BME280;64074;47.540;19.072;2024-03-22T02:15:25;100829.28;;;13.27;53.32
75497;BME280;64074;47.540;19.072;2024-03-22T02:18:29;100834.34;;;13.19;54.08
75497;BME280;64074;47.540;19.072;2024-03-22T02:21:37;100831.69;;;13.14;53.81
75497;BME280;64074;47.540;19.072;2024-03-22T02:24:47;100834.91;;;13.16;54.05
75497;BME280;64074;47.540;19.072;2024-03-22T02:28:12;100835.06;;;13.06;54.25
75497;BME280;64074;47.540;19.072;2024-03-22T02:31:25;100835.69;;;13.03;54.43
75497;BME280;64074;47.540;19.072;2024-03-22T02:34:42;100827.22;;;13.05;54.17
75497;BME280;64074;47.540;19.072;2024-03-22T02:37:45;100830.13;;;13.08;54.01
75497;BME280;64074;47.540;19.072;2024-03-22T02:40:54;100820.97;;;13.04;54.16
75497;BME280;64074;47.540;19.072;2024-03-22T02:44:09;100824.25;;;12.87;54.69
75497;BME280;64074;47.540;19.072;2024-03-22T02:47:33;100829.41;;;12.89;54.52
75497;BME280;64074;47.540;19.072;2024-03-22T02:50:55;100822.31;;;12.88;54.69
75497;BME280;64074;47.540;19.072;2024-03-22T02:54:04;100818.69;;;12.79;55.45
75497;BME280;64074;47.540;19.072;2024-03-22T02:57:07;100817.88;;;12.78;55.20
75497;BME280;64074;47.540;19.072;2024-03-22T03:00:16;100824.44;;;12.77;55.27
75497;BME280;64074;47.540;19.072;2024-03-22T03:03:39;100829.97;;;12.72;55.32
75497;BME280;64074;47.540;19.072;2024-03-22T03:07:10;100818.38;;;12.80;55.28
75497;BME280;64074;47.540;19.072;2024-03-22T03:10:19;100813.53;;;12.77;56.47
75497;BME280;64074;47.540;19.072;2024-03-22T03:13:46;100818.09;;;12.82;55.98
75497;BME280;64074;47.540;19.072;2024-03-22T03:17:04;100802.78;;;12.86;56.05
75497;BME280;64074;47.540;19.072;2024-03-22T03:20:25;100813.25;;;12.79;56.41
75497;BME280;64074;47.540;19.072;2024-03-22T03:23:46;100809.22;;;12.76;57.01
75497;BME280;64074;47.540;19.072;2024-03-22T03:27:08;100813.75;;;12.81;56.77
75497;BME280;64074;47.540;19.072;2024-03-22T03:30:24;100811.72;;;12.73;57.21
75497;BME280;64074;47.540;19.072;2024-03-22T03:33:33;100816.88;;;12.74;57.80
75497;BME280;64074;47.540;19.072;2024-03-22T03:37:12;100821.78;;;12.40;58.97
75497;BME280;64074;47.540;19.072;2024-03-22T03:40:27;100817.84;;;12.65;58.88
75497;BME280;64074;47.540;19.072;2024-03-22T03:43:53;100818.69;;;12.79;58.50
75497;BME280;64074;47.540;19.072;2024-03-22T03:47:21;100814.94;;;12.75;58.77
75497;BME280;64074;47.540;19.072;2024-03-22T03:50:53;100816.78;;;12.79;58.81
75497;BME280;64074;47.540;19.072;2024-03-22T03:54:03;100824.03;;;12.84;58.75
75497;BME280;64074;47.540;19.072;2024-03-22T03:57:22;100819.47;;;12.66;60.14
75497;BME280;64074;47.540;19.072;2024-03-22T04:00:56;100832.53;;;12.63;60.15
75497;BME280;64074;47.540;19.072;2024-03-22T04:04:13;100826.88;;;12.60;60.96
75497;BME280;64074;47.540;19.072;2024-03-22T04:07:30;100822.84;;;12.57;61.56
75497;BME280;64074;47.540;19.072;2024-03-22T04:10:53;100824.94;;;12.47;62.34
75497;BME280;64074;47.540;19.072;2024-03-22T04:14:14;100832.50;;;12.50;63.11
75497;BME280;64074;47.540;19.072;2024-03-22T04:17:26;100826.16;;;12.36;63.28
75497;BME280;64074;47.540;19.072;2024-03-22T04:20:42;100828.03;;;12.40;64.04
75497;BME280;64074;47.540;19.072;2024-03-22T04:24:04;100838.09;;;12.40;63.56
75497;BME280;64074;47.540;19.072;2024-03-22T04:27:26;100842.47;;;12.36;64.08
75497;BME280;64074;47.540;19.072;2024-03-22T04:30:35;100837.34;;;12.34;63.97
75497;BME280;64074;47.540;19.072;2024-03-22T04:33:46;100836.75;;;12.37;64.10
75497;BME280;64074;47.540;19.072;2024-03-22T04:36:57;100846.75;;;12.23;65.03
75497;BME280;64074;47.540;19.072;2024-03-22T04:40:17;100835.22;;;12.31;64.53
75497;BME280;64074;47.540;19.072;2024-03-22T04:43:37;100847.47;;;12.28;65.12
75497;BME280;64074;47.540;19.072;2024-03-22T04:46:43;100850.72;;;12.30;64.25
75497;BME280;64074;47.540;19.072;2024-03-22T04:49:50;100849.91;;;12.30;64.81
75497;BME280;64074;47.540;19.072;2024-03-22T04:52:59;100850.41;;;12.32;64.91
75497;BME280;64074;47.540;19.072;2024-03-22T04:56:12;100848.38;;;12.24;65.03
75497;BME280;64074;47.540;19.072;2024-03-22T04:59:25;100851.53;;;12.31;65.21
75497;BME280;64074;47.540;19.072;2024-03-22T05:02:42;100852.34;;;12.31;65.62
75497;BME280;64074;47.540;19.072;2024-03-22T05:06:03;100860.78;;;12.30;65.24
75497;BME280;64074;47.540;19.072;2024-03-22T05:09:07;100864.53;;;12.34;65.59
75497;BME280;64074;47.540;19.072;2024-03-22T05:12:13;100854.84;;;12.28;65.76
75497;BME280;64074;47.540;19.072;2024-03-22T05:15:23;100853.88;;;12.19;66.15
75497;BME280;64074;47.540;19.072;2024-03-22T05:18:32;100857.19;;;12.16;66.53
75497;BME280;64074;47.540;19.072;2024-03-22T05:21:53;100858.50;;;12.18;66.54
75497;BME280;64074;47.540;19.072;2024-03-22T05:24:59;100860.41;;;11.99;66.79
75497;BME280;64074;47.540;19.072;2024-03-22T05:28:15;100862.03;;;12.19;66.92
75497;BME280;64074;47.540;19.072;2024-03-22T05:31:20;100855.00;;;12.18;66.86
75497;BME280;64074;47.540;19.072;2024-03-22T05:34:26;100859.31;;;12.19;67.03
75497;BME280;64074;47.540;19.072;2024-03-22T05:37:35;100848.88;;;12.07;67.58
75497;BME280;64074;47.540;19.072;2024-03-22T05:40:38;100848.44;;;12.19;66.58
75497;BME280;64074;47.540;19.072;2024-03-22T05:43:48;100848.75;;;12.17;67.57
75497;BME280;64074;47.540;19.072;2024-03-22T05:46:54;100845.78;;;12.14;67.07
75497;BME280;64074;47.540;19.072;2024-03-22T05:50:04;100856.38;;;12.15;67.25
75497;BME280;64074;47.540;19.072;2024-03-22T05:53:20;100851.31;;;12.27;67.19
75497;BME280;64074;47.540;19.072;2024-03-22T05:56:43;100851.41;;;12.41;66.17
75497;BME280;64074;47.540;19.072;2024-03-22T06:00:01;100847.19;;;12.49;66.10
75497;BME280;64074;47.540;19.072;2024-03-22T06:03:18;100850.41;;;12.32;66.79
75497;BME280;64074;47.540;19.072;2024-03-22T06:07:05;100853.13;;;12.51;65.67
75497;BME280;64074;47.540;19.072;2024-03-22T06:10:21;100855.03;;;12.69;65.96
75497;BME280;64074;47.540;19.072;2024-03-22T06:13:39;100853.13;;;12.51;66.18
75497;BME280;64074;47.540;19.072;2024-03-22T06:16:58;100853.44;;;12.68;65.54
75497;BME280;64074;47.540;19.072;2024-03-22T06:20:16;100857.16;;;12.72;65.49
75497;BME280;64074;47.540;19.072;2024-03-22T06:23:22;100851.81;;;12.48;66.46
75497;BME280;64074;47.540;19.072;2024-03-22T06:26:31;100855.56;;;12.52;66.23
75497;BME280;64074;47.540;19.072;2024-03-22T06:29:36;100856.00;;;12.59;66.18
75497;BME280;64074;47.540;19.072;2024-03-22T06:32:49;100852.69;;;12.62;66.49
75497;BME280;64074;47.540;19.072;2024-03-22T06:36:02;100849.00;;;12.72;66.23
75497;BME280;64074;47.540;19.072;2024-03-22T06:39:17;100851.72;;;12.72;66.01
75497;BME280;64074;47.540;19.072;2024-03-22T06:42:41;100856.19;;;12.82;65.42
75497;BME280;64074;47.540;19.072;2024-03-22T06:46:01;100854.56;;;12.81;65.55
75497;BME280;64074;47.540;19.072;2024-03-22T06:49:07;100848.56;;;12.98;65.21
75497;BME280;64074;47.540;19.072;2024-03-22T06:52:19;100848.88;;;12.96;64.84
75497;BME280;64074;47.540;19.072;2024-03-22T06:55:53;100856.25;;;13.09;64.83
75497;BME280;64074;47.540;19.072;2024-03-22T06:59:10;100862.69;;;13.00;65.23
75497;BME280;64074;47.540;19.072;2024-03-22T07:02:46;100863.00;;;12.98;65.02
75497;BME280;64074;47.540;19.072;2024-03-22T07:06:06;100871.06;;;13.03;64.66
75497;BME280;64074;47.540;19.072;2024-03-22T07:09:18;100878.59;;;12.92;64.79
75497;BME280;64074;47.540;19.072;2024-03-22T07:12:22;100878.22;;;13.18;63.94
75497;BME280;64074;47.540;19.072;2024-03-22T07:15:28;100872.50;;;13.61;63.37
75497;BME280;64074;47.540;19.072;2024-03-22T07:18:39;100877.75;;;13.71;63.29
75497;BME280;64074;47.540;19.072;2024-03-22T07:22:05;100879.34;;;13.85;62.40
75497;BME280;64074;47.540;19.072;2024-03-22T07:25:22;100876.84;;;13.89;61.82
75497;BME280;64074;47.540;19.072;2024-03-22T07:28:33;100871.19;;;13.58;62.67
75497;BME280;64074;47.540;19.072;2024-03-22T07:31:56;100877.44;;;13.72;62.50
75497;BME280;64074;47.540;19.072;2024-03-22T07:35:19;100877.66;;;13.90;61.87
75497;BME280;64074;47.540;19.072;2024-03-22T07:38:36;100885.81;;;13.62;62.90
75497;BME280;64074;47.540;19.072;2024-03-22T07:41:49;100892.28;;;13.94;62.20
75497;BME280;64074;47.540;19.072;2024-03-22T07:45:19;100879.38;;;13.72;62.83
75497;BME280;64074;47.540;19.072;2024-03-22T07:48:35;100895.59;;;14.18;61.67
75497;BME280;64074;47.540;19.072;2024-03-22T07:51:52;100899.56;;;13.98;61.67
75497;BME280;64074;47.540;19.072;2024-03-22T07:55:19;100896.81;;;13.57;62.37
75497;BME280;64074;47.540;19.072;2024-03-22T07:58:58;100892.97;;;13.85;61.81
75497;BME280;64074;47.540;19.072;2024-03-22T08:02:14;100905.72;;;13.90;61.57
75497;BME280;64074;47.540;19.072;2024-03-22T08:05:35;100912.16;;;14.08;61.20
75497;BME280;64074;47.540;19.072;2024-03-22T08:08:46;100903.16;;;14.21;60.50
75497;BME280;64074;47.540;19.072;2024-03-22T08:11:56;100906.63;;;14.13;60.97
75497;BME280;64074;47.540;19.072;2024-03-22T08:15:10;100903.38;;;14.11;61.47
75497;BME280;64074;47.540;19.072;2024-03-22T08:18:23;100903.09;;;13.71;62.19
75497;BME280;64074;47.540;19.072;2024-03-22T08:21:36;100909.03;;;13.87;61.67
75497;BME280;64074;47.540;19.072;2024-03-22T08:24:45;100907.69;;;14.12;61.05
75497;BME280;64074;47.540;19.072;2024-03-22T08:27:53;100908.44;;;13.76;62.16
75497;BME280;64074;47.540;19.072;2024-03-22T08:30:58;100905.78;;;14.26;61.07
75497;BME280;64074;47.540;19.072;2024-03-22T08:34:13;100901.25;;;13.80;62.37
75497;BME280;64074;47.540;19.072;2024-03-22T08:37:22;100907.50;;;14.08;61.34
75497;BME280;64074;47.540;19.072;2024-03-22T08:40:32;100904.94;;;14.39;60.08
75497;BME280;64074;47.540;19.072;2024-03-22T08:43:50;100906.06;;;14.52;60.39
75497;BME280;64074;47.540;19.072;2024-03-22T08:47:12;100904.91;;;14.89;59.24
75497;BME280;64074;47.540;19.072;2024-03-22T08:50:23;100898.44;;;15.07;58.19
75497;BME280;64074;47.540;19.072;2024-03-22T08:53:46;100893.72;;;15.22;57.94
75497;BME280;64074;47.540;19.072;2024-03-22T08:57:07;100885.44;;;15.35;57.92
75497;BME280;64074;47.540;19.072;2024-03-22T09:00:25;100881.84;;;15.97;56.19
75497;BME280;64074;47.540;19.072;2024-03-22T09:03:40;100883.22;;;15.77;56.10
75497;BME280;64074;47.540;19.072;2024-03-22T09:07:10;100879.31;;;15.61;56.51
75497;BME280;64074;47.540;19.072;2024-03-22T09:10:21;100889.69;;;15.19;57.15
75497;BME280;64074;47.540;19.072;2024-03-22T09:13:41;100875.38;;;15.45;56.77
75497;BME280;64074;47.540;19.072;2024-03-22T09:16:54;100873.75;;;15.75;56.23
75497;BME280;64074;47.540;19.072;2024-03-22T09:20:12;100875.69;;;15.83;56.61
75497;BME280;64074;47.540;19.072;2024-03-22T09:23:22;100867.06;;;15.98;55.81
75497;BME280;64074;47.540;19.072;2024-03-22T09:26:32;100872.03;;;15.87;55.96
75497;BME280;64074;47.540;19.072;2024-03-22T09:29:42;100868.56;;;15.64;56.29
75497;BME280;64074;47.540;19.072;2024-03-22T09:32:55;100864.56;;;15.71;56.11
75497;BME280;64074;47.540;19.072;2024-03-22T09:36:10;100858.09;;;16.23;54.88
75497;BME280;64074;47.540;19.072;2024-03-22T09:39:20;100859.13;;;15.79;56.11
75497;BME280;64074;47.540;19.072;2024-03-22T09:42:41;100857.72;;;15.90;55.91
75497;BME280;64074;47.540;19.072;2024-03-22T09:46:04;100850.47;;;16.03;55.55
75497;BME280;64074;47.540;19.072;2024-03-22T09:49:39;100870.97;;;16.49;55.05
75497;BME280;64074;47.540;19.072;2024-03-22T09:53:10;100849.53;;;16.34;54.27
75497;BME280;64074;47.540;19.072;2024-03-22T09:56:49;100851.78;;;16.06;55.15
75497;BME280;64074;47.540;19.072;2024-03-22T09:59:59;100839.75;;;16.15;55.36
75497;BME280;64074;47.540;19.072;2024-03-22T10:03:17;100832.50;;;16.19;55.15
75497;BME280;64074;47.540;19.072;2024-03-22T10:06:29;100829.13;;;16.14;55.17
75497;BME280;64074;47.540;19.072;2024-03-22T10:09:42;100840.72;;;16.37;54.54
75497;BME280;64074;47.540;19.072;2024-03-22T10:13:07;100835.53;;;16.52;53.90
75497;BME280;64074;47.540;19.072;2024-03-22T10:16:22;100836.34;;;16.36;54.02
75497;BME280;64074;47.540;19.072;2024-03-22T10:19:30;100832.31;;;16.33;54.18
75497;BME280;64074;47.540;19.072;2024-03-22T10:22:47;100823.31;;;16.76;53.72
75497;BME280;64074;47.540;19.072;2024-03-22T10:26:19;100827.59;;;17.03;52.32
75497;BME280;64074;47.540;19.072;2024-03-22T10:29:37;100820.75;;;16.71;53.12
75497;BME280;64074;47.540;19.072;2024-03-22T10:32:46;100823.22;;;17.19;51.26
75497;BME280;64074;47.540;19.072;2024-03-22T10:36:12;100824.78;;;17.37;51.62
75497;BME280;64074;47.540;19.072;2024-03-22T10:40:34;100826.69;;;17.75;50.39
75497;BME280;64074;47.540;19.072;2024-03-22T10:44:10;100825.25;;;17.98;50.17
75497;BME280;64074;47.540;19.072;2024-03-22T10:47:34;100821.31;;;17.87;49.88
75497;BME280;64074;47.540;19.072;2024-03-22T10:50:56;100829.00;;;17.94;49.01
75497;BME280;64074;47.540;19.072;2024-03-22T10:54:06;100829.72;;;17.82;48.85
75497;BME280;64074;47.540;19.072;2024-03-22T10:57:18;100823.75;;;17.80;49.30
75497;BME280;64074;47.540;19.072;2024-03-22T11:00:33;100818.72;;;17.91;48.43
75497;BME280;64074;47.540;19.072;2024-03-22T11:04:07;100821.97;;;18.05;47.44
75497;BME280;64074;47.540;19.072;2024-03-22T11:07:32;100817.91;;;17.90;46.49
75497;BME280;64074;47.540;19.072;2024-03-22T11:10:45;100809.44;;;17.74;48.06
75497;BME280;64074;47.540;19.072;2024-03-22T11:13:58;100818.91;;;17.86;48.10
75497;BME280;64074;47.540;19.072;2024-03-22T11:17:04;100815.94;;;17.61;48.79
75497;BME280;64074;47.540;19.072;2024-03-22T11:20:19;100809.34;;;17.62;48.20
75497;BME280;64074;47.540;19.072;2024-03-22T11:24:03;100805.09;;;17.35;49.96
75497;BME280;64074;47.540;19.072;2024-03-22T11:27:28;100796.75;;;17.61;48.49
75497;BME280;64074;47.540;19.072;2024-03-22T11:30:40;100803.56;;;17.17;49.86
75497;BME280;64074;47.540;19.072;2024-03-22T11:33:56;100796.22;;;18.18;48.45
75497;BME280;64074;47.540;19.072;2024-03-22T11:37:27;100797.09;;;18.31;45.48
75497;BME280;64074;47.540;19.072;2024-03-22T11:40:44;100788.34;;;17.66;47.39
75497;BME280;64074;47.540;19.072;2024-03-22T11:43:59;100783.53;;;17.54;45.98
75497;BME280;64074;47.540;19.072;2024-03-22T11:47:07;100784.59;;;18.54;44.86
75497;BME280;64074;47.540;19.072;2024-03-22T11:50:17;100785.47;;;19.24;43.42
75497;BME280;64074;47.540;19.072;2024-03-22T11:53:22;100775.13;;;18.85;42.24
75497;BME280;64074;47.540;19.072;2024-03-22T11:56:34;100779.09;;;18.54;42.30
75497;BME280;64074;47.540;19.072;2024-03-22T11:59:46;100768.41;;;19.31;41.63
75497;BME280;64074;47.540;19.072;2024-03-22T12:03:04;100766.75;;;18.81;41.91
75497;BME280;64074;47.540;19.072;2024-03-22T12:06:14;100764.66;;;18.66;42.57
75497;BME280;64074;47.540;19.072;2024-03-22T12:09:24;100761.13;;;18.78;42.49
75497;BME280;64074;47.540;19.072;2024-03-22T12:12:54;100758.03;;;18.13;44.18
75497;BME280;64074;47.540;19.072;2024-03-22T12:16:14;100751.38;;;18.35;43.63
75497;BME280;64074;47.540;19.072;2024-03-22T12:19:35;100748.13;;;18.33;43.51
75497;BME280;64074;47.540;19.072;2024-03-22T12:22:40;100751.38;;;18.68;42.63
75497;BME280;64074;47.540;19.072;2024-03-22T12:25:50;100745.94;;;18.92;42.38
75497;BME280;64074;47.540;19.072;2024-03-22T12:29:01;100740.84;;;18.70;43.20
75497;BME280;64074;47.540;19.072;2024-03-22T12:32:15;100735.81;;;18.72;43.32
75497;BME280;64074;47.540;19.072;2024-03-22T12:35:38;100744.88;;;18.19;44.28
75497;BME280;64074;47.540;19.072;2024-03-22T12:38:55;100741.72;;;18.29;43.80
75497;BME280;64074;47.540;19.072;2024-03-22T12:42:06;100734.25;;;17.96;43.97
75497;BME280;64074;47.540;19.072;2024-03-22T12:45:16;100726.81;;;17.97;44.20
75497;BME280;64074;47.540;19.072;2024-03-22T12:48:26;100731.50;;;17.96;43.37
75497;BME280;64074;47.540;19.072;2024-03-22T12:51:37;100721.47;;;18.00;42.75
75497;BME280;64074;47.540;19.072;2024-03-22T12:54:46;100714.84;;;17.80;44.18
75497;BME280;64074;47.540;19.072;2024-03-22T12:58:09;100705.06;;;18.12;43.37
75497;BME280;64074;47.540;19.072;2024-03-22T13:01:39;100705.63;;;18.39;42.87
75497;BME280;64074;47.540;19.072;2024-03-22T13:05:30;100690.31;;;18.50;42.81
75497;BME280;64074;47.540;19.072;2024-03-22T13:08:40;100688.28;;;18.59;42.53
75497;BME280;64074;47.540;19.072;2024-03-22T13:11:49;100692.13;;;18.46;42.91
75497;BME280;64074;47.540;19.072;2024-03-22T13:15:06;100683.59;;;18.60;42.73
75497;BME280;64074;47.540;19.072;2024-03-22T13:18:32;100682.28;;;17.79;44.00
75497;BME280;64074;47.540;19.072;2024-03-22T13:21:45;100671.50;;;18.97;41.94
75497;BME280;64074;47.540;19.072;2024-03-22T13:24:57;100668.63;;;18.82;42.11
75497;BME280;64074;47.540;19.072;2024-03-22T13:28:26;100657.66;;;18.82;42.25
75497;BME280;64074;47.540;19.072;2024-03-22T13:31:58;100651.00;;;20.87;38.67
75497;BME280;64074;47.540;19.072;2024-03-22T13:35:13;100648.06;;;22.69;34.12
75497;BME280;64074;47.540;19.072;2024-03-22T13:38:34;100641.31;;;23.73;32.58
75497;BME280;64074;47.540;19.072;2024-03-22T13:41:43;100647.91;;;23.61;32.22
75497;BME280;64074;47.540;19.072;2024-03-22T13:44:58;100635.53;;;22.76;33.76
75497;BME280;64074;47.540;19.072;2024-03-22T13:48:10;100627.75;;;22.81;34.05
75497;BME280;64074;47.540;19.072;2024-03-22T13:51:24;100631.63;;;21.54;35.87
75497;BME280;64074;47.540;19.072;2024-03-22T13:54:32;100623.78;;;20.70;37.76
75497;BME280;64074;47.540;19.072;2024-03-22T13:57:38;100632.72;;;19.91;39.07
75497;BME280;64074;47.540;19.072;2024-03-22T14:00:47;100621.88;;;19.43;39.73
75497;BME280;64074;47.540;19.072;2024-03-22T14:04:09;100622.53;;;19.52;39.57
75497;BME280;64074;47.540;19.072;2024-03-22T14:07:19;100613.41;;;19.76;38.87
75497;BME280;64074;47.540;19.072;2024-03-22T14:10:30;100615.47;;;19.26;38.88
75497;BME280;64074;47.540;19.072;2024-03-22T14:13:39;100615.41;;;18.62;40.01
75497;BME280;64074;47.540;19.072;2024-03-22T14:16:49;100615.38;;;20.19;37.31
75497;BME280;64074;47.540;19.072;2024-03-22T14:20:04;100613.16;;;21.03;35.37
75497;BME280;64074;47.540;19.072;2024-03-22T14:23:30;100604.16;;;21.99;34.34
75497;BME280;64074;47.540;19.072;2024-03-22T14:27:22;100590.28;;;22.15;33.49
75497;BME280;64074;47.540;19.072;2024-03-22T14:30:24;100596.84;;;21.49;35.00
75497;BME280;64074;47.540;19.072;2024-03-22T14:33:31;100589.28;;;23.55;31.85
75497;BME280;64074;47.540;19.072;2024-03-22T14:36:34;100577.91;;;23.60;31.77
75497;BME280;64074;47.540;19.072;2024-03-22T14:39:45;100577.22;;;22.35;33.18
75497;BME280;64074;47.540;19.072;2024-03-22T14:42:54;100583.16;;;21.17;35.17
75497;BME280;64074;47.540;19.072;2024-03-22T14:46:17;100574.75;;;20.60;36.35
75497;BME280;64074;47.540;19.072;2024-03-22T14:49:32;100581.97;;;19.61;38.15
75497;BME280;64074;47.540;19.072;2024-03-22T14:52:35;100580.94;;;19.01;39.19
75497;BME280;64074;47.540;19.072;2024-03-22T14:55:38;100574.97;;;19.51;38.61
75497;BME280;64074;47.540;19.072;2024-03-22T14:58:46;100576.53;;;19.36;38.60
75497;BME280;64074;47.540;19.072;2024-03-22T15:02:14;100573.03;;;18.99;39.11
75497;BME280;64074;47.540;19.072;2024-03-22T15:05:36;100564.72;;;19.92;37.10
75497;BME280;64074;47.540;19.072;2024-03-22T15:08:51;100560.34;;;20.66;35.99
75497;BME280;64074;47.540;19.072;2024-03-22T15:12:16;100564.16;;;19.30;38.29
75497;BME280;64074;47.540;19.072;2024-03-22T15:15:25;100564.69;;;18.96;39.23
75497;BME280;64074;47.540;19.072;2024-03-22T15:18:53;100555.53;;;18.55;40.12
75497;BME280;64074;47.540;19.072;2024-03-22T15:22:24;100560.25;;;17.85;41.80
75497;BME280;64074;47.540;19.072;2024-03-22T15:26:05;100553.47;;;17.70;41.40
75497;BME280;64074;47.540;19.072;2024-03-22T15:29:13;100556.16;;;18.03;40.61
75497;BME280;64074;47.540;19.072;2024-03-22T15:32:22;100559.88;;;17.74;40.65
75497;BME280;64074;47.540;19.072;2024-03-22T15:35:39;100562.66;;;17.66;40.96
75497;BME280;64074;47.540;19.072;2024-03-22T15:39:01;100552.50;;;17.87;40.26
75497;BME280;64074;47.540;19.072;2024-03-22T15:42:36;100556.97;;;17.38;40.11
75497;BME280;64074;47.540;19.072;2024-03-22T15:45:44;100560.50;;;17.17;40.68
75497;BME280;64074;47.540;19.072;2024-03-22T15:48:48;100565.44;;;17.24;40.53
75497;BME280;64074;47.540;19.072;2024-03-22T15:52:05;100556.53;;;17.27;41.35
75497;BME280;64074;47.540;19.072;2024-03-22T15:55:16;100557.63;;;17.14;41.28
75497;BME280;64074;47.540;19.072;2024-03-22T15:58:29;100556.66;;;17.31;41.62
75497;BME280;64074;47.540;19.072;2024-03-22T16:01:51;100555.81;;;17.39;41.74
75497;BME280;64074;47.540;19.072;2024-03-22T16:05:22;100550.88;;;17.11;42.60
75497;BME280;64074;47.540;19.072;2024-03-22T16:08:37;100552.06;;;17.22;43.09
75497;BME280;64074;47.540;19.072;2024-03-22T16:11:59;100559.78;;;16.79;44.25
75497;BME280;64074;47.540;19.072;2024-03-22T16:15:26;100550.66;;;16.96;44.72
75497;BME280;64074;47.540;19.072;2024-03-22T16:18:47;100553.44;;;16.66;44.75
75497;BME280;64074;47.540;19.072;2024-03-22T16:22:12;100553.59;;;16.90;44.80
75497;BME280;64074;47.540;19.072;2024-03-22T16:25:31;100561.97;;;16.56;44.95
75497;BME280;64074;47.540;19.072;2024-03-22T16:28:55;100556.81;;;16.54;43.68
75497;BME280;64074;47.540;19.072;2024-03-22T16:32:07;100556.59;;;16.39;43.43
75497;BME280;64074;47.540;19.072;2024-03-22T16:35:37;100551.13;;;16.30;43.79
75497;BME280;64074;47.540;19.072;2024-03-22T16:38:53;100563.28;;;16.50;43.78
75497;BME280;64074;47.540;19.072;2024-03-22T16:42:06;100562.16;;;16.51;43.65
75497;BME280;64074;47.540;19.072;2024-03-22T16:45:36;100563.44;;;16.07;44.64
75497;BME280;64074;47.540;19.072;2024-03-22T16:48:50;100569.47;;;16.29;43.86
75497;BME280;64074;47.540;19.072;2024-03-22T16:51:57;100566.56;;;15.88;44.19
75497;BME280;64074;47.540;19.072;2024-03-22T16:55:09;100562.81;;;16.01;44.56
75497;BME280;64074;47.540;19.072;2024-03-22T16:58:13;100568.00;;;15.94;44.11